createdAt,value
2022-07-31T00:00:25.663Z,6.82
2022-07-31T00:03:06.010Z,8.80
2022-07-31T00:05:38.769Z,10.05
2022-07-31T00:08:10.565Z,12.15
2022-07-31T00:10:38.479Z,10.65
2022-07-31T00:13:06.172Z,11.57
2022-07-31T00:15:33.764Z,10.90
2022-07-31T00:18:01.538Z,9.30
2022-07-31T00:20:29.213Z,7.70
2022-07-31T00:22:57.438Z,8.07
2022-07-31T00:25:25.257Z,8.25
2022-07-31T00:27:52.907Z,8.88
2022-07-31T00:30:20.488Z,9.45
2022-07-31T00:32:48.993Z,10.93
2022-07-31T00:35:19.671Z,10.60
2022-07-31T00:37:47.454Z,9.48
2022-07-31T00:40:16.433Z,19.65
2022-07-31T00:42:44.268Z,11.77
2022-07-31T00:45:13.589Z,13.68
2022-07-31T00:47:42.144Z,13.95
2022-07-31T00:50:10.294Z,14.93
2022-07-31T00:52:39.831Z,16.15
2022-07-31T00:55:07.903Z,14.73
2022-07-31T00:57:37.284Z,11.93
2022-07-31T01:00:23.855Z,15.35
2022-07-31T01:02:51.741Z,11.73
2022-07-31T01:05:19.383Z,10.85
2022-07-31T01:07:48.907Z,9.80
2022-07-31T01:10:20.736Z,10.02
2022-07-31T01:12:54.256Z,13.18
2022-07-31T01:15:22.192Z,10.70
2022-07-31T01:17:50.776Z,11.60
2022-07-31T01:20:18.487Z,13.70
2022-07-31T01:22:49.036Z,11.90
2022-07-31T01:25:23.455Z,11.77
2022-07-31T01:28:05.127Z,10.93
2022-07-31T01:30:37.951Z,11.18
2022-07-31T01:33:09.538Z,10.13
2022-07-31T01:35:42.951Z,10.30
2022-07-31T01:38:13.731Z,7.88
2022-07-31T01:40:44.359Z,10.50
2022-07-31T01:43:20.096Z,11.87
2022-07-31T01:45:50.462Z,7.90
2022-07-31T01:48:19.472Z,10.57
2022-07-31T01:50:48.111Z,11.65
2022-07-31T01:53:20.778Z,8.35
2022-07-31T01:56:00.864Z,7.60
2022-07-31T01:58:38.705Z,7.50
2022-07-31T02:01:22.189Z,7.65
2022-07-31T02:03:56.386Z,7.90
2022-07-31T02:06:24.287Z,7.07
2022-07-31T02:08:53.266Z,7.55
2022-07-31T02:11:22.692Z,8.55
2022-07-31T02:13:50.685Z,9.27
2022-07-31T02:16:19.104Z,7.35
2022-07-31T02:18:52.854Z,8.57
2022-07-31T02:21:25.263Z,6.60
2022-07-31T02:23:53.191Z,6.50
2022-07-31T02:26:20.868Z,8.13
2022-07-31T02:28:48.941Z,5.72
2022-07-31T02:31:17.819Z,4.25
2022-07-31T02:33:47.962Z,3.58
2022-07-31T02:36:20.417Z,2.45
2022-07-31T02:38:48.768Z,3.70
2022-07-31T02:41:17.355Z,4.53
2022-07-31T02:43:45.695Z,3.25
2022-07-31T02:46:24.860Z,3.88
2022-07-31T02:48:52.703Z,3.42
2022-07-31T02:51:23.881Z,3.30
2022-07-31T02:53:52.786Z,2.42
2022-07-31T02:56:22.841Z,3.03
2022-07-31T02:58:51.293Z,3.72
2022-07-31T03:01:25.566Z,2.17
2022-07-31T03:03:53.792Z,3.80
2022-07-31T03:06:21.349Z,1.38
2022-07-31T03:08:49.420Z,3.13
2022-07-31T03:13:48.647Z,5.53
2022-07-31T03:16:16.550Z,3.83
2022-07-31T03:18:45.223Z,4.28
2022-07-31T03:21:12.811Z,1.58
2022-07-31T03:23:41.209Z,6.22
2022-07-31T03:26:15.171Z,1.88
2022-07-31T03:28:43.463Z,5.28
2022-07-31T03:31:11.015Z,1.25
2022-07-31T03:33:38.788Z,1.65
2022-07-31T03:36:06.898Z,3.08
2022-07-31T03:38:40.931Z,2.53
2022-07-31T03:41:18.874Z,3.97
2022-07-31T03:43:48.678Z,2.10
2022-07-31T03:46:20.601Z,2.58
2022-07-31T03:48:51.867Z,0.85
2022-07-31T03:51:19.948Z,4.13
2022-07-31T03:53:48.741Z,1.90
2022-07-31T03:56:35.243Z,0.60
2022-07-31T03:59:03.901Z,1.95
2022-07-31T04:01:57.274Z,2.97
2022-07-31T04:04:29.647Z,2.70
2022-07-31T04:07:00.022Z,1.30
2022-07-31T04:09:29.321Z,0.93
2022-07-31T04:11:57.250Z,0.85
2022-07-31T04:14:25.094Z,0.90
2022-07-31T04:16:52.754Z,2.50
2022-07-31T04:19:20.647Z,2.30
2022-07-31T04:21:50.302Z,1.33
2022-07-31T04:24:18.469Z,1.00
2022-07-31T04:26:55.979Z,3.53
2022-07-31T04:31:58.240Z,3.50
2022-07-31T04:34:33.151Z,0.82
2022-07-31T04:37:01.050Z,0.95
2022-07-31T04:39:28.720Z,5.55
2022-07-31T04:41:57.111Z,2.55
2022-07-31T04:44:24.895Z,1.70
2022-07-31T04:46:59.226Z,2.38
2022-07-31T04:49:27.402Z,2.20
2022-07-31T04:51:54.998Z,3.15
2022-07-31T04:54:23.183Z,2.75
2022-07-31T04:56:51.706Z,2.15
2022-07-31T04:59:20.717Z,1.40
2022-07-31T05:01:48.908Z,0.70
2022-07-31T05:04:19.861Z,1.30
2022-07-31T05:06:51.794Z,2.58
2022-07-31T05:09:25.468Z,1.63
2022-07-31T05:11:57.121Z,0.88
2022-07-31T05:14:24.722Z,1.13
2022-07-31T05:16:54.979Z,1.73
2022-07-31T05:19:23.729Z,3.00
2022-07-31T05:22:11.540Z,2.45
2022-07-31T05:24:58.036Z,1.30
2022-07-31T05:27:25.803Z,1.30
2022-07-31T05:29:59.837Z,2.47
2022-07-31T05:32:27.448Z,1.20
2022-07-31T05:34:55.088Z,0.90
2022-07-31T05:37:25.298Z,6.30
2022-07-31T05:39:53.735Z,1.38
2022-07-31T05:42:40.083Z,1.73
2022-07-31T05:45:26.607Z,1.50
2022-07-31T05:47:54.607Z,2.13
2022-07-31T05:50:23.293Z,1.85
2022-07-31T05:52:50.891Z,3.72
2022-07-31T05:55:39.165Z,2.67
2022-07-31T05:58:20.739Z,2.53
2022-07-31T06:00:50.338Z,3.50
2022-07-31T06:03:23.001Z,3.28
2022-07-31T06:05:59.031Z,2.78
2022-07-31T06:08:27.024Z,3.60
2022-07-31T06:10:57.572Z,3.45
2022-07-31T06:13:30.235Z,4.88
2022-07-31T06:16:02.407Z,4.43
2022-07-31T06:18:30.214Z,4.63
2022-07-31T06:20:57.785Z,9.48
2022-07-31T06:23:29.586Z,5.53
2022-07-31T06:26:16.355Z,4.65
2022-07-31T06:28:47.570Z,3.90
2022-07-31T06:31:21.386Z,4.88
2022-07-31T06:33:50.782Z,4.90
2022-07-31T06:39:09.247Z,4.07
2022-07-31T06:41:49.152Z,5.93
2022-07-31T06:44:29.026Z,5.05
2022-07-31T06:47:16.175Z,4.20
2022-07-31T06:50:02.796Z,5.35
2022-07-31T06:52:36.095Z,4.15
2022-07-31T06:55:03.884Z,4.35
2022-07-31T06:57:31.461Z,4.07
2022-07-31T06:59:59.274Z,5.00
2022-07-31T07:02:26.873Z,7.00
2022-07-31T07:05:01.504Z,5.75
2022-07-31T07:07:38.613Z,7.32
2022-07-31T07:10:09.323Z,6.53
2022-07-31T07:12:59.158Z,5.10
2022-07-31T07:15:46.351Z,7.68
2022-07-31T07:18:14.667Z,3.92
2022-07-31T07:20:52.889Z,5.85
2022-07-31T07:23:21.730Z,7.10
2022-07-31T07:26:11.860Z,6.15
2022-07-31T07:28:40.708Z,6.97
2022-07-31T07:31:10.108Z,5.40
2022-07-31T07:33:41.856Z,6.53
2022-07-31T07:36:22.985Z,9.75
2022-07-31T07:38:56.500Z,6.03
2022-07-31T07:41:25.361Z,5.75
2022-07-31T07:43:53.568Z,4.60
2022-07-31T07:46:23.907Z,7.20
2022-07-31T07:48:55.501Z,6.72
2022-07-31T07:51:35.920Z,4.70
2022-07-31T07:54:26.222Z,4.03
2022-07-31T07:57:18.117Z,5.80
2022-07-31T08:00:07.006Z,4.38
2022-07-31T08:03:47.415Z,4.38
2022-07-31T08:05:47.112Z,3.08
2022-07-31T08:08:14.801Z,4.47
2022-07-31T08:11:04.949Z,5.13
2022-07-31T08:13:47.862Z,7.47
2022-07-31T08:16:36.153Z,4.85
2022-07-31T08:19:04.005Z,4.00
2022-07-31T08:21:34.682Z,4.18
2022-07-31T08:24:02.503Z,6.82
2022-07-31T08:26:48.727Z,5.32
2022-07-31T08:29:16.662Z,5.40
2022-07-31T08:31:57.478Z,5.07
2022-07-31T08:34:54.736Z,5.32
2022-07-31T08:37:52.310Z,4.85
2022-07-31T08:40:11.240Z,6.03
2022-07-31T08:42:38.879Z,6.13
2022-07-31T08:45:07.939Z,5.40
2022-07-31T08:47:39.222Z,5.28
2022-07-31T08:50:15.467Z,6.22
2022-07-31T08:52:45.687Z,6.55
2022-07-31T08:55:55.909Z,5.55
2022-07-31T08:58:20.720Z,5.30
2022-07-31T09:00:48.467Z,5.43
2022-07-31T09:03:16.329Z,7.25
2022-07-31T09:05:51.339Z,8.60
2022-07-31T09:08:19.050Z,5.63
2022-07-31T09:11:01.819Z,7.82
2022-07-31T09:13:31.139Z,6.82
2022-07-31T09:16:01.207Z,8.38
2022-07-31T09:18:30.192Z,7.30
2022-07-31T09:21:06.233Z,6.75
2022-07-31T09:23:43.912Z,6.82
2022-07-31T09:26:11.870Z,4.85
2022-07-31T09:28:40.714Z,6.97
2022-07-31T09:31:09.262Z,5.70
2022-07-31T09:34:12.125Z,6.80
2022-07-31T09:36:40.060Z,6.43
2022-07-31T09:39:28.041Z,6.60
2022-07-31T09:42:17.153Z,7.32
2022-07-31T09:45:06.162Z,8.65
2022-07-31T09:47:34.741Z,7.53
2022-07-31T09:50:06.350Z,7.38
2022-07-31T09:52:34.542Z,7.10
2022-07-31T09:55:15.665Z,6.03
2022-07-31T09:57:52.448Z,6.55
2022-07-31T10:00:21.254Z,6.25
2022-07-31T10:02:49.386Z,5.80
2022-07-31T10:05:17.450Z,6.13
2022-07-31T10:07:46.515Z,7.50
2022-07-31T10:10:21.295Z,6.28
2022-07-31T10:13:03.036Z,8.90
2022-07-31T10:18:36.172Z,7.93
2022-07-31T10:21:17.980Z,6.70
2022-07-31T10:23:51.484Z,10.50
2022-07-31T10:26:20.911Z,7.50
2022-07-31T10:28:48.971Z,8.93
2022-07-31T10:31:17.395Z,6.57
2022-07-31T10:33:47.568Z,6.63
2022-07-31T10:36:52.647Z,8.20
2022-07-31T10:40:01.765Z,7.43
2022-07-31T10:42:48.486Z,7.97
2022-07-31T10:45:17.419Z,6.68
2022-07-31T10:47:58.609Z,7.75
2022-07-31T10:50:45.717Z,8.30
2022-07-31T10:53:51.093Z,8.23
2022-07-31T10:56:43.354Z,8.52
2022-07-31T10:59:30.411Z,9.25
2022-07-31T11:02:34.166Z,11.23
2022-07-31T11:05:25.941Z,8.30
2022-07-31T11:08:09.095Z,8.75
2022-07-31T11:10:56.208Z,7.72
2022-07-31T11:13:50.596Z,7.30
2022-07-31T11:16:35.860Z,8.73
2022-07-31T11:19:42.638Z,7.97
2022-07-31T11:22:31.643Z,9.20
2022-07-31T11:24:59.255Z,9.05
2022-07-31T11:27:31.017Z,8.30
2022-07-31T11:30:13.165Z,9.43
2022-07-31T11:32:42.539Z,9.25
2022-07-31T11:35:10.157Z,9.05
2022-07-31T11:37:56.904Z,8.23
2022-07-31T11:40:27.422Z,9.55
2022-07-31T11:43:24.931Z,8.60
2022-07-31T11:45:52.591Z,8.85
2022-07-31T11:48:20.828Z,10.13
2022-07-31T11:50:49.664Z,8.32
2022-07-31T11:53:19.161Z,9.27
2022-07-31T11:55:54.703Z,11.32
2022-07-31T11:58:24.398Z,10.43
2022-07-31T12:00:59.280Z,11.07
2022-07-31T12:03:31.719Z,10.57
2022-07-31T12:05:59.538Z,11.43
2022-07-31T12:08:28.695Z,11.65
2022-07-31T12:10:57.503Z,12.52
2022-07-31T12:13:25.504Z,17.15
2022-07-31T12:15:59.511Z,12.48
2022-07-31T12:18:28.671Z,13.48
2022-07-31T12:21:01.536Z,14.02
2022-07-31T12:23:42.081Z,10.63
2022-07-31T12:26:12.914Z,13.85
2022-07-31T12:28:41.125Z,13.30
2022-07-31T12:31:09.083Z,12.05
2022-07-31T12:33:43.774Z,15.15
2022-07-31T12:36:16.306Z,14.90
2022-07-31T12:38:48.812Z,15.43
2022-07-31T12:41:17.013Z,15.60
2022-07-31T12:43:52.458Z,13.73
2022-07-31T12:46:21.476Z,15.70
2022-07-31T12:48:49.090Z,13.85
2022-07-31T12:51:19.876Z,13.40
2022-07-31T12:54:08.974Z,13.00
2022-07-31T12:56:37.384Z,12.65
2022-07-31T12:59:05.660Z,12.48
2022-07-31T13:01:33.754Z,10.43
2022-07-31T13:04:03.379Z,13.82
2022-07-31T13:06:31.387Z,12.95
2022-07-31T13:08:59.240Z,12.07
2022-07-31T13:11:28.944Z,11.57
2022-07-31T13:13:57.489Z,13.35
2022-07-31T13:16:25.274Z,13.07
2022-07-31T13:18:52.988Z,12.25
2022-07-31T13:21:20.597Z,11.43
2022-07-31T13:23:48.319Z,9.40
2022-07-31T13:26:15.949Z,13.30
2022-07-31T13:28:43.519Z,12.75
2022-07-31T13:31:11.782Z,13.57
2022-07-31T13:33:39.357Z,11.85
2022-07-31T13:36:07.015Z,14.45
2022-07-31T13:38:34.789Z,12.50
2022-07-31T13:41:20.899Z,12.35
2022-07-31T13:43:59.500Z,12.82
2022-07-31T13:46:28.779Z,13.82
2022-07-31T13:48:58.875Z,14.25
2022-07-31T13:51:28.907Z,11.55
2022-07-31T13:53:56.869Z,11.90
2022-07-31T13:56:39.423Z,10.85
2022-07-31T13:59:11.791Z,12.88
2022-07-31T14:02:04.023Z,11.75
2022-07-31T14:04:31.424Z,13.07
2022-07-31T14:07:01.184Z,10.93
2022-07-31T14:09:29.128Z,9.98
2022-07-31T14:11:56.722Z,12.63
2022-07-31T14:14:24.479Z,12.52
2022-07-31T14:16:52.216Z,9.27
2022-07-31T14:19:20.915Z,10.65
2022-07-31T14:21:50.115Z,12.07
2022-07-31T14:24:25.469Z,9.38
2022-07-31T14:26:53.436Z,10.52
2022-07-31T14:29:21.092Z,9.48
2022-07-31T14:31:48.636Z,11.80
2022-07-31T14:34:16.400Z,10.88
2022-07-31T14:36:43.956Z,9.40
2022-07-31T14:39:11.551Z,10.43
2022-07-31T14:41:39.308Z,9.85
2022-07-31T14:44:06.875Z,14.45
2022-07-31T14:46:34.521Z,16.10
2022-07-31T14:49:02.943Z,10.05
2022-07-31T14:51:30.591Z,10.73
2022-07-31T14:53:59.591Z,9.70
2022-07-31T14:56:51.407Z,10.25
2022-07-31T14:59:15.765Z,10.57
2022-07-31T15:01:43.621Z,9.45
2022-07-31T15:04:11.254Z,10.25
2022-07-31T15:06:53.048Z,9.50
2022-07-31T15:09:26.851Z,8.82
2022-07-31T15:11:59.676Z,7.50
2022-07-31T15:14:32.888Z,8.02
2022-07-31T15:17:00.491Z,8.50
2022-07-31T15:19:28.103Z,6.80
2022-07-31T15:22:10.708Z,11.63
2022-07-31T15:24:48.811Z,9.90
2022-07-31T15:27:19.006Z,7.75
2022-07-31T15:30:04.296Z,11.20
2022-07-31T15:32:34.665Z,12.27
2022-07-31T15:35:02.505Z,9.68
2022-07-31T15:37:30.407Z,9.55
2022-07-31T15:40:02.638Z,12.55
2022-07-31T15:42:32.042Z,9.30
2022-07-31T15:45:00.031Z,8.23
2022-07-31T15:47:27.655Z,10.73
2022-07-31T15:49:55.206Z,7.57
2022-07-31T15:52:23.185Z,8.27
2022-07-31T15:54:52.282Z,9.43
2022-07-31T15:57:23.603Z,9.15
2022-07-31T15:59:54.231Z,12.52
2022-07-31T16:02:22.146Z,8.65
2022-07-31T16:04:52.684Z,6.75
2022-07-31T16:08:32.840Z,10.48
2022-07-31T16:10:16.139Z,8.68
2022-07-31T16:12:48.576Z,9.02
2022-07-31T16:15:17.192Z,8.18
2022-07-31T16:17:45.324Z,8.60
2022-07-31T16:20:20.696Z,8.70
2022-07-31T16:22:54.706Z,8.43
2022-07-31T16:25:22.923Z,7.07
2022-07-31T16:27:50.517Z,8.85
2022-07-31T16:30:18.221Z,14.15
2022-07-31T16:32:46.062Z,12.88
2022-07-31T16:35:13.926Z,26.20
2022-07-31T16:37:51.898Z,7.88
2022-07-31T16:40:29.919Z,10.07
2022-07-31T16:43:01.335Z,8.15
2022-07-31T16:45:30.032Z,7.43
2022-07-31T16:47:57.758Z,7.07
2022-07-31T16:50:25.486Z,8.98
2022-07-31T16:52:55.108Z,15.27
2022-07-31T16:55:51.719Z,10.30
2022-07-31T16:58:12.007Z,15.80
2022-07-31T17:00:40.296Z,12.85
2022-07-31T17:04:01.918Z,10.50
2022-07-31T17:05:55.790Z,10.75
2022-07-31T17:08:23.336Z,6.88
2022-07-31T17:10:54.388Z,8.63
2022-07-31T17:13:23.136Z,6.38
2022-07-31T17:15:51.224Z,5.15
2022-07-31T17:18:21.091Z,10.05
2022-07-31T17:20:48.904Z,8.32
2022-07-31T17:23:16.548Z,9.10
2022-07-31T17:26:04.351Z,7.95
2022-07-31T17:28:31.845Z,8.45
2022-07-31T17:31:02.559Z,7.20
2022-07-31T17:33:58.507Z,6.72
2022-07-31T17:36:18.512Z,6.78
2022-07-31T17:38:46.307Z,6.90
2022-07-31T17:41:24.563Z,7.38
2022-07-31T17:43:54.665Z,7.07
2022-07-31T17:46:34.255Z,7.65
2022-07-31T17:49:06.216Z,7.93
2022-07-31T17:51:33.890Z,9.32
2022-07-31T17:54:01.561Z,13.15
2022-07-31T17:56:29.391Z,10.98
2022-07-31T17:59:03.792Z,10.70
2022-07-31T18:01:32.169Z,9.43
2022-07-31T18:03:59.958Z,7.45
2022-07-31T18:06:27.694Z,9.77
2022-07-31T18:08:55.494Z,6.50
2022-07-31T18:11:23.163Z,7.63
2022-07-31T18:13:55.192Z,6.75
2022-07-31T18:16:24.699Z,8.52
2022-07-31T18:18:54.522Z,8.13
2022-07-31T18:21:23.495Z,11.20
2022-07-31T18:23:51.269Z,12.40
2022-07-31T18:26:18.954Z,9.70
2022-07-31T18:28:46.522Z,8.13
2022-07-31T18:31:32.354Z,9.80
2022-07-31T18:34:01.955Z,12.15
2022-07-31T18:36:29.701Z,11.35
2022-07-31T18:38:57.754Z,10.75
2022-07-31T18:41:25.714Z,10.75
2022-07-31T18:43:53.560Z,10.10
2022-07-31T18:46:21.347Z,9.20
2022-07-31T18:48:53.249Z,7.70
2022-07-31T18:51:23.272Z,11.65
2022-07-31T18:53:51.118Z,12.50
2022-07-31T18:56:18.726Z,8.32
2022-07-31T18:58:46.556Z,8.98
2022-07-31T19:01:14.323Z,8.65
2022-07-31T19:03:42.806Z,6.82
2022-07-31T19:06:10.686Z,6.20
2022-07-31T19:08:38.247Z,8.40
2022-07-31T19:11:07.204Z,8.68
2022-07-31T19:13:35.113Z,8.05
2022-07-31T19:16:02.754Z,8.90
2022-07-31T19:18:30.428Z,7.60
2022-07-31T19:21:22.995Z,6.25
2022-07-31T19:24:04.440Z,5.50
2022-07-31T19:26:32.327Z,5.95
2022-07-31T19:29:00.032Z,5.88
2022-07-31T19:31:27.658Z,7.00
2022-07-31T19:33:55.474Z,5.47
2022-07-31T19:36:23.064Z,6.47
2022-07-31T19:38:50.726Z,5.32
2022-07-31T19:41:18.603Z,11.63
2022-07-31T19:43:46.359Z,6.20
2022-07-31T19:46:14.059Z,6.15
2022-07-31T19:48:42.819Z,4.07
2022-07-31T19:51:15.043Z,5.75
2022-07-31T19:53:44.514Z,5.55
2022-07-31T19:56:20.180Z,8.27
2022-07-31T19:58:49.439Z,7.18
2022-07-31T20:01:20.302Z,4.00
2022-07-31T20:03:48.418Z,8.98
2022-07-31T20:06:16.652Z,6.53
2022-07-31T20:08:44.295Z,6.03
2022-07-31T20:11:12.084Z,5.45
2022-07-31T20:13:39.911Z,7.63
2022-07-31T20:16:07.819Z,5.93
2022-07-31T20:18:35.472Z,7.32
2022-07-31T20:21:04.832Z,6.68
2022-07-31T20:23:34.220Z,5.85
2022-07-31T20:26:02.218Z,5.50
2022-07-31T20:28:30.122Z,10.73
2022-07-31T20:30:58.062Z,7.35
2022-07-31T20:33:25.651Z,10.07
2022-07-31T20:35:53.429Z,7.90
2022-07-31T20:38:22.622Z,7.85
2022-07-31T20:40:54.761Z,4.78
2022-07-31T20:43:24.599Z,6.70
2022-07-31T20:45:52.284Z,6.13
2022-07-31T20:48:22.482Z,7.90
2022-07-31T20:50:50.769Z,6.25
2022-07-31T20:53:19.344Z,7.05
2022-07-31T20:55:49.634Z,9.13
2022-07-31T20:58:18.570Z,5.72
2022-07-31T21:00:47.423Z,7.47
2022-07-31T21:03:16.299Z,7.47
2022-07-31T21:05:44.596Z,6.93
2022-07-31T21:08:12.453Z,6.47
2022-07-31T21:10:40.229Z,7.22
2022-07-31T21:13:08.123Z,8.05
2022-07-31T21:15:41.892Z,8.82
2022-07-31T21:18:13.442Z,6.93
2022-07-31T21:20:50.106Z,6.03
2022-07-31T21:23:21.470Z,9.75
2022-07-31T21:25:49.126Z,6.43
2022-07-31T21:28:16.806Z,9.95
2022-07-31T21:30:44.789Z,8.20
2022-07-31T21:33:12.519Z,9.55
2022-07-31T21:35:40.692Z,8.88
2022-07-31T21:38:14.671Z,5.47
2022-07-31T21:40:42.577Z,7.20
2022-07-31T21:43:11.819Z,9.10
2022-07-31T21:45:55.020Z,11.02
2022-07-31T21:48:25.307Z,7.10
2022-07-31T21:50:53.349Z,8.18
2022-07-31T21:53:21.089Z,7.20
2022-07-31T21:55:49.069Z,7.38
2022-07-31T21:58:16.809Z,8.90
2022-07-31T22:00:44.722Z,7.68
2022-07-31T22:03:12.751Z,12.85
2022-07-31T22:05:59.009Z,7.38
2022-07-31T22:08:26.726Z,7.95
2022-07-31T22:10:54.296Z,7.95
2022-07-31T22:13:21.850Z,6.20
2022-07-31T22:15:58.667Z,5.72
2022-07-31T22:18:32.393Z,9.25
2022-07-31T22:21:01.221Z,8.05
2022-07-31T22:23:29.531Z,7.93
2022-07-31T22:25:57.213Z,8.75
2022-07-31T22:28:26.464Z,6.15
2022-07-31T22:30:54.539Z,9.07
2022-07-31T22:33:22.698Z,9.38
2022-07-31T22:35:59.729Z,11.95
2022-07-31T22:38:29.665Z,10.45
2022-07-31T22:40:58.528Z,9.13
2022-07-31T22:44:12.958Z,8.07
2022-07-31T22:46:14.255Z,9.45
2022-07-31T22:48:41.898Z,7.15
2022-07-31T22:51:10.763Z,6.40
2022-07-31T22:53:42.657Z,6.07
2022-07-31T22:56:10.206Z,11.07
2022-07-31T22:58:37.788Z,10.60
2022-07-31T23:01:05.678Z,10.40
2022-07-31T23:03:33.226Z,10.73
2022-07-31T23:06:03.050Z,11.80
2022-07-31T23:08:53.791Z,11.48
2022-07-31T23:11:42.818Z,12.52
2022-07-31T23:14:11.077Z,12.57
2022-07-31T23:16:38.855Z,11.70
2022-07-31T23:19:06.451Z,17.23
2022-07-31T23:21:34.270Z,13.82
2022-07-31T23:24:01.898Z,13.98
2022-07-31T23:26:29.707Z,11.25
2022-07-31T23:31:44.676Z,13.73
2022-07-31T23:34:15.767Z,8.40
2022-07-31T23:36:46.326Z,9.45
2022-07-31T23:39:14.167Z,11.00
2022-07-31T23:42:00.353Z,13.60
2022-07-31T23:44:28.155Z,17.33
2022-07-31T23:46:55.949Z,11.15
2022-07-31T23:49:24.325Z,14.95
2022-07-31T23:51:52.053Z,10.27
2022-07-31T23:54:19.702Z,13.38
2022-07-31T23:56:47.270Z,8.82
2022-07-31T23:59:15.149Z,9.50
